sensor_id;sensor_type;location;lat;lon;timestamp;P1;durP1;ratioP1;P2;durP2;ratioP2
5999;SDS011;3028;49.468;7.694;2023-02-28T00:00:55;2.50;;;2.37;;
5999;SDS011;3028;49.468;7.694;2023-02-28T00:02:57;2.23;;;2.00;;
5999;SDS011;3028;49.468;7.694;2023-02-28T00:04:59;2.50;;;2.30;;
5999;SDS011;3028;49.468;7.694;2023-02-28T00:07:02;2.30;;;2.20;;
5999;SDS011;3028;49.468;7.694;2023-02-28T00:09:04;2.37;;;2.17;;
5999;SDS011;3028;49.468;7.694;2023-02-28T00:11:06;2.30;;;2.20;;
5999;SDS011;3028;49.468;7.694;2023-02-28T00:13:12;2.40;;;2.30;;
5999;SDS011;3028;49.468;7.694;2023-02-28T00:15:14;2.33;;;2.23;;
5999;SDS011;3028;49.468;7.694;2023-02-28T00:17:16;2.40;;;2.30;;
5999;SDS011;3028;49.468;7.694;2023-02-28T00:19:22;2.43;;;2.23;;
5999;SDS011;3028;49.468;7.694;2023-02-28T00:21:23;3.00;;;2.70;;
5999;SDS011;3028;49.468;7.694;2023-02-28T00:23:25;2.53;;;2.33;;
5999;SDS011;3028;49.468;7.694;2023-02-28T00:25:27;2.27;;;2.17;;
5999;SDS011;3028;49.468;7.694;2023-02-28T00:27:29;3.23;;;2.10;;
5999;SDS011;3028;49.468;7.694;2023-02-28T00:29:31;2.50;;;2.33;;
5999;SDS011;3028;49.468;7.694;2023-02-28T00:31:33;2.13;;;2.03;;
5999;SDS011;3028;49.468;7.694;2023-02-28T00:33:34;2.90;;;2.80;;
5999;SDS011;3028;49.468;7.694;2023-02-28T00:35:36;2.70;;;2.20;;
5999;SDS011;3028;49.468;7.694;2023-02-28T00:37:38;4.70;;;2.73;;
5999;SDS011;3028;49.468;7.694;2023-02-28T00:39:40;2.40;;;2.30;;
5999;SDS011;3028;49.468;7.694;2023-02-28T00:41:41;3.53;;;2.37;;
5999;SDS011;3028;49.468;7.694;2023-02-28T00:43:43;3.10;;;2.90;;
5999;SDS011;3028;49.468;7.694;2023-02-28T00:45:45;5.50;;;2.70;;
5999;SDS011;3028;49.468;7.694;2023-02-28T00:47:47;2.80;;;2.60;;
5999;SDS011;3028;49.468;7.694;2023-02-28T00:49:51;2.80;;;2.60;;
5999;SDS011;3028;49.468;7.694;2023-02-28T00:51:53;2.73;;;2.63;;
5999;SDS011;3028;49.468;7.694;2023-02-28T00:53:55;2.57;;;2.40;;
5999;SDS011;3028;49.468;7.694;2023-02-28T00:55:59;2.97;;;2.77;;
5999;SDS011;3028;49.468;7.694;2023-02-28T00:58:01;8.03;;;2.43;;
5999;SDS011;3028;49.468;7.694;2023-02-28T01:00:04;4.47;;;3.23;;
5999;SDS011;3028;49.468;7.694;2023-02-28T01:02:08;3.67;;;3.37;;
5999;SDS011;3028;49.468;7.694;2023-02-28T01:04:09;2.60;;;2.40;;
5999;SDS011;3028;49.468;7.694;2023-02-28T01:06:11;3.03;;;2.83;;
5999;SDS011;3028;49.468;7.694;2023-02-28T01:08:13;2.33;;;2.13;;
5999;SDS011;3028;49.468;7.694;2023-02-28T01:10:15;2.27;;;2.17;;
5999;SDS011;3028;49.468;7.694;2023-02-28T01:12:17;2.33;;;2.20;;
5999;SDS011;3028;49.468;7.694;2023-02-28T01:14:19;3.03;;;2.83;;
5999;SDS011;3028;49.468;7.694;2023-02-28T01:16:20;5.03;;;3.00;;
5999;SDS011;3028;49.468;7.694;2023-02-28T01:18:22;2.27;;;2.17;;
5999;SDS011;3028;49.468;7.694;2023-02-28T01:20:24;2.30;;;2.20;;
5999;SDS011;3028;49.468;7.694;2023-02-28T01:22:26;2.87;;;2.73;;
5999;SDS011;3028;49.468;7.694;2023-02-28T01:24:27;3.30;;;3.10;;
5999;SDS011;3028;49.468;7.694;2023-02-28T01:26:29;2.63;;;2.43;;
5999;SDS011;3028;49.468;7.694;2023-02-28T01:28:31;2.57;;;2.43;;
5999;SDS011;3028;49.468;7.694;2023-02-28T01:30:33;2.57;;;2.37;;
5999;SDS011;3028;49.468;7.694;2023-02-28T01:32:35;3.07;;;2.47;;
5999;SDS011;3028;49.468;7.694;2023-02-28T01:34:37;3.30;;;3.10;;
5999;SDS011;3028;49.468;7.694;2023-02-28T01:36:39;2.73;;;2.43;;
5999;SDS011;3028;49.468;7.694;2023-02-28T01:38:42;3.20;;;3.00;;
5999;SDS011;3028;49.468;7.694;2023-02-28T01:40:44;3.30;;;3.10;;
5999;SDS011;3028;49.468;7.694;2023-02-28T01:42:45;3.07;;;2.87;;
5999;SDS011;3028;49.468;7.694;2023-02-28T01:44:55;3.07;;;2.87;;
5999;SDS011;3028;49.468;7.694;2023-02-28T01:47:02;3.07;;;2.93;;
5999;SDS011;3028;49.468;7.694;2023-02-28T01:49:14;3.40;;;3.20;;
5999;SDS011;3028;49.468;7.694;2023-02-28T01:51:22;4.13;;;3.37;;
5999;SDS011;3028;49.468;7.694;2023-02-28T01:53:32;3.23;;;3.03;;
5999;SDS011;3028;49.468;7.694;2023-02-28T01:55:36;5.53;;;2.83;;
5999;SDS011;3028;49.468;7.694;2023-02-28T01:57:40;3.63;;;3.43;;
5999;SDS011;3028;49.468;7.694;2023-02-28T01:59:49;4.57;;;3.43;;
5999;SDS011;3028;49.468;7.694;2023-02-28T02:01:55;3.37;;;3.17;;
5999;SDS011;3028;49.468;7.694;2023-02-28T02:03:57;3.77;;;3.47;;
5999;SDS011;3028;49.468;7.694;2023-02-28T02:06:02;2.90;;;2.80;;
5999;SDS011;3028;49.468;7.694;2023-02-28T02:08:05;3.57;;;3.37;;
5999;SDS011;3028;49.468;7.694;2023-02-28T02:10:13;4.00;;;3.70;;
5999;SDS011;3028;49.468;7.694;2023-02-28T02:14:46;3.90;;;3.70;;
5999;SDS011;3028;49.468;7.694;2023-02-28T02:29:39;3.17;;;2.97;;
5999;SDS011;3028;49.468;7.694;2023-02-28T02:31:32;3.27;;;2.87;;
5999;SDS011;3028;49.468;7.694;2023-02-28T02:39:06;4.20;;;3.80;;
5999;SDS011;3028;49.468;7.694;2023-02-28T02:43:40;3.77;;;3.47;;
5999;SDS011;3028;49.468;7.694;2023-02-28T02:45:51;3.27;;;2.97;;
5999;SDS011;3028;49.468;7.694;2023-02-28T02:47:58;3.07;;;2.77;;
5999;SDS011;3028;49.468;7.694;2023-02-28T02:50:02;3.33;;;3.20;;
5999;SDS011;3028;49.468;7.694;2023-02-28T02:52:07;3.60;;;3.40;;
5999;SDS011;3028;49.468;7.694;2023-02-28T02:54:16;3.97;;;3.53;;
5999;SDS011;3028;49.468;7.694;2023-02-28T02:56:22;4.63;;;4.33;;
5999;SDS011;3028;49.468;7.694;2023-02-28T02:58:28;5.87;;;3.43;;
5999;SDS011;3028;49.468;7.694;2023-02-28T03:00:33;4.23;;;4.03;;
5999;SDS011;3028;49.468;7.694;2023-02-28T03:02:37;3.90;;;3.70;;
5999;SDS011;3028;49.468;7.694;2023-02-28T03:04:43;3.40;;;3.20;;
5999;SDS011;3028;49.468;7.694;2023-02-28T03:06:47;3.60;;;3.30;;
5999;SDS011;3028;49.468;7.694;2023-02-28T03:08:49;4.47;;;3.10;;
5999;SDS011;3028;49.468;7.694;2023-02-28T03:10:52;3.63;;;3.33;;
5999;SDS011;3028;49.468;7.694;2023-02-28T03:13:27;4.17;;;3.87;;
5999;SDS011;3028;49.468;7.694;2023-02-28T03:15:24;4.10;;;3.90;;
5999;SDS011;3028;49.468;7.694;2023-02-28T03:20:03;4.97;;;3.57;;
5999;SDS011;3028;49.468;7.694;2023-02-28T03:22:36;3.23;;;3.03;;
5999;SDS011;3028;49.468;7.694;2023-02-28T03:27:24;3.50;;;3.30;;
5999;SDS011;3028;49.468;7.694;2023-02-28T03:29:34;4.27;;;3.97;;
5999;SDS011;3028;49.468;7.694;2023-02-28T03:31:38;3.83;;;3.17;;
5999;SDS011;3028;49.468;7.694;2023-02-28T03:33:44;3.13;;;2.93;;
5999;SDS011;3028;49.468;7.694;2023-02-28T03:35:57;3.73;;;3.47;;
5999;SDS011;3028;49.468;7.694;2023-02-28T03:38:10;3.60;;;3.40;;
5999;SDS011;3028;49.468;7.694;2023-02-28T03:40:25;8.53;;;3.63;;
5999;SDS011;3028;49.468;7.694;2023-02-28T03:42:31;4.80;;;3.93;;
5999;SDS011;3028;49.468;7.694;2023-02-28T03:44:34;7.53;;;4.07;;
5999;SDS011;3028;49.468;7.694;2023-02-28T03:46:40;3.73;;;3.53;;
5999;SDS011;3028;49.468;7.694;2023-02-28T03:48:50;4.70;;;4.30;;
5999;SDS011;3028;49.468;7.694;2023-02-28T03:50:57;3.80;;;3.43;;
5999;SDS011;3028;49.468;7.694;2023-02-28T03:53:10;3.37;;;3.17;;
5999;SDS011;3028;49.468;7.694;2023-02-28T03:55:14;4.40;;;4.20;;
5999;SDS011;3028;49.468;7.694;2023-02-28T03:57:26;4.17;;;3.93;;
5999;SDS011;3028;49.468;7.694;2023-02-28T03:59:54;3.90;;;3.70;;
5999;SDS011;3028;49.468;7.694;2023-02-28T04:02:17;3.33;;;3.13;;
5999;SDS011;3028;49.468;7.694;2023-02-28T04:04:19;3.30;;;3.03;;
5999;SDS011;3028;49.468;7.694;2023-02-28T04:06:22;3.80;;;3.53;;
5999;SDS011;3028;49.468;7.694;2023-02-28T04:08:24;4.27;;;3.97;;
5999;SDS011;3028;49.468;7.694;2023-02-28T04:10:26;3.80;;;3.60;;
5999;SDS011;3028;49.468;7.694;2023-02-28T04:12:28;3.73;;;3.53;;
5999;SDS011;3028;49.468;7.694;2023-02-28T04:14:29;3.70;;;3.50;;
5999;SDS011;3028;49.468;7.694;2023-02-28T04:16:31;4.67;;;4.23;;
5999;SDS011;3028;49.468;7.694;2023-02-28T04:18:36;4.73;;;4.33;;
5999;SDS011;3028;49.468;7.694;2023-02-28T04:20:37;3.53;;;3.33;;
5999;SDS011;3028;49.468;7.694;2023-02-28T04:22:39;4.33;;;3.93;;
5999;SDS011;3028;49.468;7.694;2023-02-28T04:24:41;4.87;;;4.40;;
5999;SDS011;3028;49.468;7.694;2023-02-28T04:26:46;4.47;;;4.27;;
5999;SDS011;3028;49.468;7.694;2023-02-28T04:28:48;4.70;;;4.50;;
5999;SDS011;3028;49.468;7.694;2023-02-28T04:30:54;4.07;;;3.77;;
5999;SDS011;3028;49.468;7.694;2023-02-28T04:32:59;3.90;;;3.70;;
5999;SDS011;3028;49.468;7.694;2023-02-28T04:35:01;5.83;;;5.03;;
5999;SDS011;3028;49.468;7.694;2023-02-28T04:37:03;4.47;;;4.17;;
5999;SDS011;3028;49.468;7.694;2023-02-28T04:39:14;5.17;;;4.87;;
5999;SDS011;3028;49.468;7.694;2023-02-28T04:41:16;4.80;;;4.50;;
5999;SDS011;3028;49.468;7.694;2023-02-28T04:43:18;4.80;;;4.50;;
5999;SDS011;3028;49.468;7.694;2023-02-28T04:45:20;4.93;;;4.53;;
5999;SDS011;3028;49.468;7.694;2023-02-28T04:47:21;4.87;;;4.57;;
5999;SDS011;3028;49.468;7.694;2023-02-28T04:49:23;4.70;;;3.87;;
5999;SDS011;3028;49.468;7.694;2023-02-28T04:51:25;4.20;;;4.00;;
5999;SDS011;3028;49.468;7.694;2023-02-28T04:53:28;5.10;;;4.70;;
5999;SDS011;3028;49.468;7.694;2023-02-28T04:55:30;5.13;;;4.73;;
5999;SDS011;3028;49.468;7.694;2023-02-28T04:57:32;4.60;;;4.30;;
5999;SDS011;3028;49.468;7.694;2023-02-28T04:59:33;4.27;;;3.97;;
5999;SDS011;3028;49.468;7.694;2023-02-28T05:01:35;5.10;;;4.80;;
5999;SDS011;3028;49.468;7.694;2023-02-28T05:03:38;4.57;;;4.33;;
5999;SDS011;3028;49.468;7.694;2023-02-28T05:05:41;5.17;;;4.77;;
5999;SDS011;3028;49.468;7.694;2023-02-28T05:07:44;4.33;;;3.93;;
5999;SDS011;3028;49.468;7.694;2023-02-28T05:09:46;5.17;;;4.87;;
5999;SDS011;3028;49.468;7.694;2023-02-28T05:11:47;5.37;;;4.97;;
5999;SDS011;3028;49.468;7.694;2023-02-28T05:13:49;4.03;;;3.73;;
5999;SDS011;3028;49.468;7.694;2023-02-28T05:15:51;4.70;;;4.40;;
5999;SDS011;3028;49.468;7.694;2023-02-28T05:17:53;5.03;;;4.73;;
5999;SDS011;3028;49.468;7.694;2023-02-28T05:19:55;4.77;;;4.47;;
5999;SDS011;3028;49.468;7.694;2023-02-28T05:22:14;5.47;;;5.10;;
5999;SDS011;3028;49.468;7.694;2023-02-28T05:24:18;4.80;;;4.40;;
5999;SDS011;3028;49.468;7.694;2023-02-28T05:26:24;6.00;;;5.47;;
5999;SDS011;3028;49.468;7.694;2023-02-28T05:28:26;5.27;;;4.97;;
5999;SDS011;3028;49.468;7.694;2023-02-28T05:30:27;5.73;;;5.37;;
5999;SDS011;3028;49.468;7.694;2023-02-28T05:32:29;5.07;;;4.77;;
5999;SDS011;3028;49.468;7.694;2023-02-28T05:34:31;5.13;;;4.60;;
5999;SDS011;3028;49.468;7.694;2023-02-28T05:36:32;5.30;;;4.77;;
5999;SDS011;3028;49.468;7.694;2023-02-28T05:38:34;6.13;;;5.57;;
5999;SDS011;3028;49.468;7.694;2023-02-28T05:40:39;6.83;;;5.53;;
5999;SDS011;3028;49.468;7.694;2023-02-28T05:42:41;5.97;;;5.57;;
5999;SDS011;3028;49.468;7.694;2023-02-28T05:44:43;5.63;;;5.27;;
5999;SDS011;3028;49.468;7.694;2023-02-28T05:46:44;4.23;;;3.93;;
5999;SDS011;3028;49.468;7.694;2023-02-28T05:48:46;5.43;;;5.03;;
5999;SDS011;3028;49.468;7.694;2023-02-28T05:50:49;8.83;;;5.37;;
5999;SDS011;3028;49.468;7.694;2023-02-28T05:52:51;5.87;;;5.47;;
5999;SDS011;3028;49.468;7.694;2023-02-28T05:54:53;5.00;;;4.70;;
5999;SDS011;3028;49.468;7.694;2023-02-28T05:56:55;4.73;;;4.43;;
5999;SDS011;3028;49.468;7.694;2023-02-28T05:58:56;6.07;;;5.23;;
5999;SDS011;3028;49.468;7.694;2023-02-28T06:00:59;4.90;;;4.60;;
5999;SDS011;3028;49.468;7.694;2023-02-28T06:03:01;4.90;;;4.60;;
5999;SDS011;3028;49.468;7.694;2023-02-28T06:05:03;5.10;;;4.83;;
5999;SDS011;3028;49.468;7.694;2023-02-28T06:07:05;5.57;;;5.07;;
5999;SDS011;3028;49.468;7.694;2023-02-28T06:09:07;6.33;;;5.90;;
5999;SDS011;3028;49.468;7.694;2023-02-28T06:11:08;5.93;;;5.60;;
5999;SDS011;3028;49.468;7.694;2023-02-28T06:13:10;5.30;;;4.90;;
5999;SDS011;3028;49.468;7.694;2023-02-28T06:15:14;4.87;;;4.57;;
5999;SDS011;3028;49.468;7.694;2023-02-28T06:17:16;6.07;;;5.67;;
5999;SDS011;3028;49.468;7.694;2023-02-28T06:19:17;5.30;;;5.00;;
5999;SDS011;3028;49.468;7.694;2023-02-28T06:21:19;5.87;;;5.47;;
5999;SDS011;3028;49.468;7.694;2023-02-28T06:23:21;6.57;;;6.17;;
5999;SDS011;3028;49.468;7.694;2023-02-28T06:25:23;5.30;;;4.97;;
5999;SDS011;3028;49.468;7.694;2023-02-28T06:27:25;5.63;;;5.23;;
5999;SDS011;3028;49.468;7.694;2023-02-28T06:29:27;5.63;;;5.33;;
5999;SDS011;3028;49.468;7.694;2023-02-28T06:31:29;9.50;;;5.40;;
5999;SDS011;3028;49.468;7.694;2023-02-28T06:33:31;6.30;;;5.90;;
5999;SDS011;3028;49.468;7.694;2023-02-28T06:35:33;5.77;;;5.37;;
5999;SDS011;3028;49.468;7.694;2023-02-28T06:37:34;5.83;;;5.43;;
5999;SDS011;3028;49.468;7.694;2023-02-28T06:39:36;6.23;;;5.73;;
5999;SDS011;3028;49.468;7.694;2023-02-28T06:41:38;5.70;;;5.30;;
5999;SDS011;3028;49.468;7.694;2023-02-28T06:43:55;5.70;;;5.33;;
5999;SDS011;3028;49.468;7.694;2023-02-28T06:45:57;6.27;;;5.67;;
5999;SDS011;3028;49.468;7.694;2023-02-28T06:48:00;5.90;;;5.30;;
5999;SDS011;3028;49.468;7.694;2023-02-28T06:50:02;6.40;;;5.90;;
5999;SDS011;3028;49.468;7.694;2023-02-28T06:52:04;7.17;;;6.60;;
5999;SDS011;3028;49.468;7.694;2023-02-28T06:54:06;5.53;;;5.13;;
5999;SDS011;3028;49.468;7.694;2023-02-28T06:56:12;6.27;;;5.77;;
5999;SDS011;3028;49.468;7.694;2023-02-28T06:58:14;5.37;;;4.97;;
5999;SDS011;3028;49.468;7.694;2023-02-28T07:00:16;4.90;;;4.60;;
5999;SDS011;3028;49.468;7.694;2023-02-28T07:02:18;5.00;;;4.70;;
5999;SDS011;3028;49.468;7.694;2023-02-28T07:04:20;5.43;;;5.13;;
5999;SDS011;3028;49.468;7.694;2023-02-28T07:06:22;5.27;;;4.60;;
5999;SDS011;3028;49.468;7.694;2023-02-28T07:08:24;4.60;;;4.30;;
5999;SDS011;3028;49.468;7.694;2023-02-28T07:10:26;5.37;;;5.07;;
5999;SDS011;3028;49.468;7.694;2023-02-28T07:12:28;6.03;;;5.50;;
5999;SDS011;3028;49.468;7.694;2023-02-28T07:14:30;6.40;;;5.93;;
5999;SDS011;3028;49.468;7.694;2023-02-28T07:16:31;5.43;;;5.10;;
5999;SDS011;3028;49.468;7.694;2023-02-28T07:18:33;4.90;;;4.60;;
5999;SDS011;3028;49.468;7.694;2023-02-28T07:20:38;5.20;;;4.80;;
5999;SDS011;3028;49.468;7.694;2023-02-28T07:22:39;3.77;;;3.57;;
5999;SDS011;3028;49.468;7.694;2023-02-28T07:24:41;5.47;;;5.07;;
5999;SDS011;3028;49.468;7.694;2023-02-28T07:26:43;5.90;;;4.40;;
5999;SDS011;3028;49.468;7.694;2023-02-28T07:28:45;4.00;;;3.70;;
5999;SDS011;3028;49.468;7.694;2023-02-28T07:30:48;4.87;;;4.47;;
5999;SDS011;3028;49.468;7.694;2023-02-28T07:32:49;4.87;;;4.47;;
5999;SDS011;3028;49.468;7.694;2023-02-28T07:34:51;4.53;;;4.17;;
5999;SDS011;3028;49.468;7.694;2023-02-28T07:36:53;5.33;;;4.97;;
5999;SDS011;3028;49.468;7.694;2023-02-28T07:38:55;4.50;;;4.20;;
5999;SDS011;3028;49.468;7.694;2023-02-28T07:40:57;4.03;;;3.83;;
5999;SDS011;3028;49.468;7.694;2023-02-28T07:42:59;4.23;;;4.00;;
5999;SDS011;3028;49.468;7.694;2023-02-28T07:45:02;4.13;;;3.83;;
5999;SDS011;3028;49.468;7.694;2023-02-28T07:47:04;4.23;;;3.93;;
5999;SDS011;3028;49.468;7.694;2023-02-28T07:49:05;5.00;;;4.67;;
5999;SDS011;3028;49.468;7.694;2023-02-28T07:51:08;7.97;;;3.83;;
5999;SDS011;3028;49.468;7.694;2023-02-28T07:53:10;10.37;;;6.27;;
5999;SDS011;3028;49.468;7.694;2023-02-28T07:55:11;4.33;;;4.13;;
5999;SDS011;3028;49.468;7.694;2023-02-28T07:57:14;4.30;;;3.60;;
5999;SDS011;3028;49.468;7.694;2023-02-28T07:59:17;4.33;;;3.97;;
5999;SDS011;3028;49.468;7.694;2023-02-28T08:01:18;3.83;;;3.53;;
5999;SDS011;3028;49.468;7.694;2023-02-28T08:03:21;5.53;;;5.13;;
5999;SDS011;3028;49.468;7.694;2023-02-28T08:05:23;4.53;;;4.23;;
5999;SDS011;3028;49.468;7.694;2023-02-28T08:07:25;13.00;;;4.80;;
5999;SDS011;3028;49.468;7.694;2023-02-28T08:09:26;4.87;;;4.57;;
5999;SDS011;3028;49.468;7.694;2023-02-28T08:11:28;4.63;;;4.23;;
5999;SDS011;3028;49.468;7.694;2023-02-28T08:13:30;10.50;;;4.03;;
5999;SDS011;3028;49.468;7.694;2023-02-28T08:15:32;9.20;;;3.57;;
5999;SDS011;3028;49.468;7.694;2023-02-28T08:17:34;4.60;;;4.17;;
5999;SDS011;3028;49.468;7.694;2023-02-28T08:19:36;5.00;;;4.60;;
5999;SDS011;3028;49.468;7.694;2023-02-28T08:21:37;3.93;;;3.60;;
5999;SDS011;3028;49.468;7.694;2023-02-28T08:23:39;4.43;;;4.07;;
5999;SDS011;3028;49.468;7.694;2023-02-28T08:25:41;4.17;;;3.87;;
5999;SDS011;3028;49.468;7.694;2023-02-28T08:27:42;4.17;;;3.87;;
5999;SDS011;3028;49.468;7.694;2023-02-28T08:29:44;3.57;;;3.27;;
5999;SDS011;3028;49.468;7.694;2023-02-28T08:31:46;3.80;;;3.50;;
5999;SDS011;3028;49.468;7.694;2023-02-28T08:33:48;3.67;;;3.40;;
5999;SDS011;3028;49.468;7.694;2023-02-28T08:35:53;4.57;;;4.10;;
5999;SDS011;3028;49.468;7.694;2023-02-28T08:37:55;4.07;;;3.77;;
5999;SDS011;3028;49.468;7.694;2023-02-28T08:39:57;4.17;;;3.77;;
5999;SDS011;3028;49.468;7.694;2023-02-28T08:41:58;4.13;;;3.80;;
5999;SDS011;3028;49.468;7.694;2023-02-28T08:44:08;5.27;;;4.50;;
5999;SDS011;3028;49.468;7.694;2023-02-28T08:46:12;5.13;;;4.67;;
5999;SDS011;3028;49.468;7.694;2023-02-28T08:48:15;4.67;;;4.27;;
5999;SDS011;3028;49.468;7.694;2023-02-28T08:50:19;13.87;;;4.57;;
5999;SDS011;3028;49.468;7.694;2023-02-28T08:52:21;4.47;;;4.17;;
5999;SDS011;3028;49.468;7.694;2023-02-28T08:54:23;7.07;;;4.37;;
5999;SDS011;3028;49.468;7.694;2023-02-28T08:56:25;4.93;;;4.63;;
5999;SDS011;3028;49.468;7.694;2023-02-28T08:58:28;4.53;;;4.10;;
5999;SDS011;3028;49.468;7.694;2023-02-28T09:00:30;3.93;;;3.63;;
5999;SDS011;3028;49.468;7.694;2023-02-28T09:02:31;4.63;;;4.23;;
5999;SDS011;3028;49.468;7.694;2023-02-28T09:04:33;14.80;;;5.33;;
5999;SDS011;3028;49.468;7.694;2023-02-28T09:06:35;5.80;;;5.20;;
5999;SDS011;3028;49.468;7.694;2023-02-28T09:08:37;6.70;;;6.20;;
5999;SDS011;3028;49.468;7.694;2023-02-28T09:10:39;4.63;;;4.33;;
5999;SDS011;3028;49.468;7.694;2023-02-28T09:12:40;3.93;;;3.67;;
5999;SDS011;3028;49.468;7.694;2023-02-28T09:14:42;3.73;;;3.43;;
5999;SDS011;3028;49.468;7.694;2023-02-28T09:16:44;5.90;;;5.23;;
5999;SDS011;3028;49.468;7.694;2023-02-28T09:18:46;4.03;;;3.73;;
5999;SDS011;3028;49.468;7.694;2023-02-28T09:20:48;4.50;;;4.10;;
5999;SDS011;3028;49.468;7.694;2023-02-28T09:22:50;4.90;;;4.47;;
5999;SDS011;3028;49.468;7.694;2023-02-28T09:24:51;5.07;;;3.83;;
5999;SDS011;3028;49.468;7.694;2023-02-28T09:26:53;3.70;;;3.40;;
5999;SDS011;3028;49.468;7.694;2023-02-28T09:29:05;5.27;;;4.43;;
5999;SDS011;3028;49.468;7.694;2023-02-28T09:31:11;5.33;;;4.23;;
5999;SDS011;3028;49.468;7.694;2023-02-28T09:33:17;6.75;;;5.97;;
5999;SDS011;3028;49.468;7.694;2023-02-28T09:35:23;4.40;;;4.10;;
5999;SDS011;3028;49.468;7.694;2023-02-28T09:37:26;5.03;;;4.63;;
5999;SDS011;3028;49.468;7.694;2023-02-28T09:39:30;12.25;;;5.47;;
5999;SDS011;3028;49.468;7.694;2023-02-28T09:41:43;3.92;;;3.58;;
5999;SDS011;3028;49.468;7.694;2023-02-28T09:43:58;4.80;;;4.28;;
5999;SDS011;3028;49.468;7.694;2023-02-28T09:48:21;10.07;;;4.07;;
5999;SDS011;3028;49.468;7.694;2023-02-28T09:52:43;6.68;;;4.90;;
5999;SDS011;3028;49.468;7.694;2023-02-28T09:54:46;4.43;;;4.00;;
5999;SDS011;3028;49.468;7.694;2023-02-28T09:56:50;5.32;;;4.80;;
5999;SDS011;3028;49.468;7.694;2023-02-28T09:58:59;5.00;;;4.18;;
5999;SDS011;3028;49.468;7.694;2023-02-28T10:03:38;6.25;;;5.65;;
5999;SDS011;3028;49.468;7.694;2023-02-28T10:06:06;7.53;;;5.65;;
5999;SDS011;3028;49.468;7.694;2023-02-28T10:10:24;5.10;;;3.95;;
5999;SDS011;3028;49.468;7.694;2023-02-28T10:12:29;9.13;;;5.18;;
5999;SDS011;3028;49.468;7.694;2023-02-28T10:14:33;5.05;;;3.70;;
5999;SDS011;3028;49.468;7.694;2023-02-28T10:16:36;7.55;;;5.05;;
5999;SDS011;3028;49.468;7.694;2023-02-28T10:18:43;9.65;;;5.30;;
5999;SDS011;3028;49.468;7.694;2023-02-28T10:20:50;6.30;;;5.70;;
5999;SDS011;3028;49.468;7.694;2023-02-28T10:25:19;5.18;;;4.40;;
5999;SDS011;3028;49.468;7.694;2023-02-28T10:27:28;7.07;;;3.83;;
5999;SDS011;3028;49.468;7.694;2023-02-28T10:29:31;4.00;;;3.70;;
5999;SDS011;3028;49.468;7.694;2023-02-28T10:31:34;3.97;;;3.47;;
5999;SDS011;3028;49.468;7.694;2023-02-28T10:33:36;3.42;;;3.15;;
5999;SDS011;3028;49.468;7.694;2023-02-28T10:35:38;5.85;;;5.30;;
5999;SDS011;3028;49.468;7.694;2023-02-28T10:37:40;5.15;;;2.95;;
5999;SDS011;3028;49.468;7.694;2023-02-28T10:39:44;5.25;;;4.85;;
5999;SDS011;3028;49.468;7.694;2023-02-28T10:41:47;6.20;;;5.38;;
5999;SDS011;3028;49.468;7.694;2023-02-28T10:43:49;4.22;;;3.92;;
5999;SDS011;3028;49.468;7.694;2023-02-28T10:46:24;5.82;;;4.10;;
5999;SDS011;3028;49.468;7.694;2023-02-28T10:48:29;4.70;;;4.10;;
5999;SDS011;3028;49.468;7.694;2023-02-28T10:50:35;4.68;;;4.28;;
5999;SDS011;3028;49.468;7.694;2023-02-28T10:52:39;4.03;;;3.72;;
5999;SDS011;3028;49.468;7.694;2023-02-28T10:54:41;11.80;;;3.53;;
5999;SDS011;3028;49.468;7.694;2023-02-28T10:56:43;3.20;;;2.88;;
5999;SDS011;3028;49.468;7.694;2023-02-28T11:00:56;5.45;;;4.95;;
5999;SDS011;3028;49.468;7.694;2023-02-28T11:02:58;5.63;;;5.15;;
5999;SDS011;3028;49.468;7.694;2023-02-28T11:04:59;4.28;;;3.80;;
5999;SDS011;3028;49.468;7.694;2023-02-28T11:07:03;3.17;;;2.88;;
5999;SDS011;3028;49.468;7.694;2023-02-28T11:09:28;3.67;;;3.20;;
5999;SDS011;3028;49.468;7.694;2023-02-28T11:11:44;3.47;;;3.17;;
5999;SDS011;3028;49.468;7.694;2023-02-28T11:13:47;3.80;;;3.42;;
5999;SDS011;3028;49.468;7.694;2023-02-28T11:15:53;6.45;;;3.78;;
5999;SDS011;3028;49.468;7.694;2023-02-28T11:20:18;4.15;;;3.58;;
5999;SDS011;3028;49.468;7.694;2023-02-28T11:22:27;5.50;;;4.50;;
5999;SDS011;3028;49.468;7.694;2023-02-28T11:26:46;11.32;;;3.80;;
5999;SDS011;3028;49.468;7.694;2023-02-28T11:28:50;5.55;;;3.53;;
5999;SDS011;3028;49.468;7.694;2023-02-28T11:33:23;4.53;;;4.15;;
5999;SDS011;3028;49.468;7.694;2023-02-28T11:35:31;5.47;;;4.00;;
5999;SDS011;3028;49.468;7.694;2023-02-28T11:37:36;5.53;;;4.53;;
5999;SDS011;3028;49.468;7.694;2023-02-28T11:39:40;8.52;;;4.95;;
5999;SDS011;3028;49.468;7.694;2023-02-28T11:46:43;4.03;;;3.67;;
5999;SDS011;3028;49.468;7.694;2023-02-28T11:49:19;4.22;;;3.92;;
5999;SDS011;3028;49.468;7.694;2023-02-28T11:51:38;4.28;;;3.75;;
5999;SDS011;3028;49.468;7.694;2023-02-28T11:54:03;4.85;;;4.43;;
5999;SDS011;3028;49.468;7.694;2023-02-28T11:56:33;4.10;;;3.70;;
5999;SDS011;3028;49.468;7.694;2023-02-28T12:01:07;5.25;;;3.97;;
5999;SDS011;3028;49.468;7.694;2023-02-28T12:10:26;4.35;;;3.95;;
5999;SDS011;3028;49.468;7.694;2023-02-28T12:12:38;4.30;;;4.00;;
5999;SDS011;3028;49.468;7.694;2023-02-28T12:28:42;4.88;;;4.47;;
5999;SDS011;3028;49.468;7.694;2023-02-28T12:30:55;4.50;;;4.13;;
5999;SDS011;3028;49.468;7.694;2023-02-28T12:33:04;6.43;;;4.57;;
5999;SDS011;3028;49.468;7.694;2023-02-28T12:37:12;5.68;;;5.13;;
5999;SDS011;3028;49.468;7.694;2023-02-28T12:41:48;6.35;;;3.67;;
5999;SDS011;3028;49.468;7.694;2023-02-28T12:44:00;4.47;;;4.18;;
5999;SDS011;3028;49.468;7.694;2023-02-28T12:46:07;7.60;;;4.18;;
5999;SDS011;3028;49.468;7.694;2023-02-28T12:48:14;9.50;;;3.70;;
5999;SDS011;3028;49.468;7.694;2023-02-28T12:50:17;5.32;;;4.82;;
5999;SDS011;3028;49.468;7.694;2023-02-28T12:52:35;5.45;;;3.70;;
5999;SDS011;3028;49.468;7.694;2023-02-28T13:09:30;4.97;;;3.75;;
5999;SDS011;3028;49.468;7.694;2023-02-28T13:11:33;4.68;;;3.85;;
5999;SDS011;3028;49.468;7.694;2023-02-28T13:13:43;3.78;;;3.47;;
5999;SDS011;3028;49.468;7.694;2023-02-28T13:15:59;4.82;;;3.90;;
5999;SDS011;3028;49.468;7.694;2023-02-28T13:18:01;4.22;;;3.83;;
5999;SDS011;3028;49.468;7.694;2023-02-28T13:20:02;5.15;;;4.25;;
5999;SDS011;3028;49.468;7.694;2023-02-28T13:22:04;4.30;;;3.83;;
5999;SDS011;3028;49.468;7.694;2023-02-28T13:24:07;7.68;;;3.42;;
5999;SDS011;3028;49.468;7.694;2023-02-28T13:26:09;4.20;;;3.90;;
5999;SDS011;3028;49.468;7.694;2023-02-28T13:28:14;22.90;;;4.90;;
5999;SDS011;3028;49.468;7.694;2023-02-28T13:31:07;2.65;;;2.38;;
5999;SDS011;3028;49.468;7.694;2023-02-28T13:35:37;3.25;;;3.03;;
5999;SDS011;3028;49.468;7.694;2023-02-28T13:37:43;5.07;;;4.65;;
5999;SDS011;3028;49.468;7.694;2023-02-28T13:39:47;7.55;;;3.83;;
5999;SDS011;3028;49.468;7.694;2023-02-28T13:41:50;5.55;;;3.58;;
5999;SDS011;3028;49.468;7.694;2023-02-28T13:44:08;5.20;;;3.92;;
5999;SDS011;3028;49.468;7.694;2023-02-28T13:46:12;4.07;;;3.72;;
5999;SDS011;3028;49.468;7.694;2023-02-28T13:48:18;4.38;;;3.97;;
5999;SDS011;3028;49.468;7.694;2023-02-28T13:50:36;4.05;;;3.75;;
5999;SDS011;3028;49.468;7.694;2023-02-28T13:52:46;8.02;;;2.88;;
5999;SDS011;3028;49.468;7.694;2023-02-28T14:07:16;4.90;;;4.40;;
5999;SDS011;3028;49.468;7.694;2023-02-28T14:09:33;4.40;;;4.00;;
5999;SDS011;3028;49.468;7.694;2023-02-28T14:11:38;4.90;;;4.47;;
5999;SDS011;3028;49.468;7.694;2023-02-28T14:18:18;5.20;;;3.85;;
5999;SDS011;3028;49.468;7.694;2023-02-28T14:20:22;15.93;;;3.78;;
5999;SDS011;3028;49.468;7.694;2023-02-28T14:22:49;5.85;;;3.88;;
5999;SDS011;3028;49.468;7.694;2023-02-28T14:27:29;3.92;;;3.55;;
5999;SDS011;3028;49.468;7.694;2023-02-28T14:32:02;4.13;;;3.83;;
5999;SDS011;3028;49.468;7.694;2023-02-28T14:36:24;4.57;;;4.25;;
5999;SDS011;3028;49.468;7.694;2023-02-28T14:39:11;4.43;;;4.03;;
5999;SDS011;3028;49.468;7.694;2023-02-28T14:40:56;4.97;;;4.57;;
5999;SDS011;3028;49.468;7.694;2023-02-28T14:43:00;5.70;;;4.57;;
5999;SDS011;3028;49.468;7.694;2023-02-28T14:45:04;4.65;;;4.18;;
5999;SDS011;3028;49.468;7.694;2023-02-28T14:47:11;4.65;;;4.13;;
5999;SDS011;3028;49.468;7.694;2023-02-28T14:49:17;4.32;;;3.28;;
5999;SDS011;3028;49.468;7.694;2023-02-28T14:51:22;3.63;;;3.33;;
5999;SDS011;3028;49.468;7.694;2023-02-28T14:53:29;6.18;;;3.63;;
5999;SDS011;3028;49.468;7.694;2023-02-28T14:55:34;4.68;;;4.25;;
5999;SDS011;3028;49.468;7.694;2023-02-28T14:57:40;5.00;;;4.55;;
5999;SDS011;3028;49.468;7.694;2023-02-28T14:59:45;4.72;;;4.00;;